Impacts TAF Board
For situational awareness. Not to be used for flight planning purposes.
IDs:

KIAH - Houston/Bush Intl, TX, US

Issued at 0520 UTC 27 Feb 2020
Updated at 0819 UTC 27 Feb 2020
Potential Impact None Slight Moderate High
Time<<27/21Z 27/22Z 27/23Z 28/00Z 28/01Z 28/02Z 28/03Z 28/04Z 28/05Z 28/06Z 28/07Z 28/08Z 28/09Z>>
Type PRVL PRVL PRVL PRVL PRVL PRVL PRVL PRVL PRVL PRVL PRVL PRVL PRVL
VIS >6 >6 >6 >6 >6 >6 >6 >6 >6 >6 >6 >6 >6
CIG -- -- -- -- -- -- -- -- -- -- -- -- --
Cover SKC SKC SKC SKC SKC SKC SKC SKC SKC SKC SKC SKC SKC
FltCat VFR VFR VFR VFR VFR VFR VFR VFR VFR VFR VFR VFR VFR
WX -- -- -- -- -- -- -- -- -- -- -- -- --
WDir 260 260 260 260 260 260 190 190 190 190 190 190 190
WSpd 6 6 6 6 6 6 3 3 3 3 3 3 3
WGst -- -- -- -- -- -- -- -- -- -- -- -- --
Raw TAF
KIAH 270520Z 2706/2812 35008KT P6SM SKC
  FM270900 33003KT P6SM SKC
  FM271700 26006KT P6SM SKC
  FM280300 19003KT P6SM SKC


METAR Board
Radar Display
Forecast Discussion
For situational awareness. Not to be used for flight planning purposes.